Meteo Giornale » Osservazioni meteo Sud Africa » Johannesburg City
ore: 18:00 - Osservazioni Meteo Johannesburg City
Lat. 26° 9' S Lon. 28° 0' E Alt. 1626 metri s.l.m.
21 °C
Sereno
Temp. 24 Ore
9 °C
28 °C
Nord
0 Km/h
Dew point 3 °C
Umidità 30 %
Visibilità 12 Km
Il sole sorge alle ore 06:20
Il sole tramonta alle ore 17:55
| Data e Ora | Cielo e Fenomeni | T °C | DP °C | Um. % | Pres. hPa | Vis. km | Vento km/h | |
|---|---|---|---|---|---|---|---|---|
| Oggi h: 18:00 | Sereno | 21 | 3 | 30 | 1028 | 12 | N 0 | |
| Oggi h: 17:00 | Sereno | 24 | 3 | 25 | 1027 | 12 | N 0 | |
| Oggi h: 16:00 | Sereno | 26 | 3 | 22 | 1027 | 11 | N 0 | |
| Oggi h: 15:00 | Sereno | 27 | 2 | 19 | 1027 | 11 | N 0 | |
| Oggi h: 14:00 | Sereno | 28 | 4 | 21 | 1028 | 11 | N 0 | |
| Oggi h: 13:00 | Sereno | 26 | 4 | 24 | 1028 | 11 | N 0 | |
| Oggi h: 12:00 | Sereno | 25 | 6 | 29 | 1030 | 11 | N 0 | |
| Oggi h: 11:00 | Sereno | 24 | 6 | 31 | 1031 | 11 | N 0 | |
| Oggi h: 10:00 | Sereno | 23 | 7 | 35 | 1031 | 11 | N 0 | |
| Oggi h: 09:00 | Sereno | 20 | 6 | 39 | 1031 | 11 | N 0 | |
| Oggi h: 08:00 | Sereno | 16 | 5 | 47 | 1031 | 11 | N 0 | |
| Oggi h: 07:00 | Sereno | 9 | 4 | 70 | 1030 | 11 | N 0 | |
| Oggi h: 06:00 | Sereno | 9 | 3 | 66 | 1029 | 10 | N 0 | |
| Oggi h: 05:00 | Sereno | 10 | 3 | 61 | 1029 | 10 | N 0 | |
| Oggi h: 04:00 | Sereno | 11 | 3 | 57 | 1028 | 10 | N 0 | |
| Oggi h: 03:00 | Sereno | 11 | 4 | 61 | 1028 | 10 | N 0 | |
| Oggi h: 02:00 | Sereno | 13 | 3 | 50 | 1029 | 10 | N 0 | |
| Oggi h: 01:00 | Sereno | 13 | 4 | 54 | 1029 | 0 | N 0 | |
| Oggi h: 00:00 | Sereno | 13 | 4 | 54 | 1029 | 0 | N 0 | |
| Ieri h: 23:00 | Sereno | 13 | 4 | 54 | 1030 | 0 | N 0 | |
| Ieri h: 22:00 | Sereno | 13 | 4 | 54 | 1030 | 0 | N 0 | |
| Ieri h: 21:00 | Sereno | 14 | 4 | 50 | 1029 | 0 | N 0 | |
| Ieri h: 20:00 | Sereno | 15 | 4 | 47 | 1028 | 0 | N 0 | |
| Ieri h: 19:00 | Sereno | 17 | 3 | 39 | 1028 | 0 | N 0 | |



